createdAt,value
2022-09-06T00:01:17.720Z,24.89
2022-09-06T00:03:46.609Z,24.85
2022-09-06T00:06:18.043Z,24.83
2022-09-06T00:08:48.505Z,24.82
2022-09-06T00:11:18.204Z,24.78
2022-09-06T00:13:47.096Z,24.76
2022-09-06T00:16:30.105Z,24.76
2022-09-06T00:18:58.941Z,24.74
2022-09-06T00:21:30.860Z,24.68
2022-09-06T00:23:59.266Z,24.66
2022-09-06T00:26:27.603Z,24.59
2022-09-06T00:28:55.825Z,24.59
2022-09-06T00:31:26.633Z,24.65
2022-09-06T00:33:54.775Z,24.63
2022-09-06T00:36:23.382Z,24.57
2022-09-06T00:38:51.680Z,24.54
2022-09-06T00:41:20.172Z,24.56
2022-09-06T00:43:50.193Z,24.48
2022-09-06T00:46:28.226Z,24.51
2022-09-06T00:49:04.172Z,24.48
2022-09-06T00:51:34.776Z,24.50
2022-09-06T00:54:06.961Z,24.46
2022-09-06T00:56:41.179Z,24.45
2022-09-06T00:59:09.873Z,24.45
2022-09-06T01:01:38.160Z,24.39
2022-09-06T01:04:06.947Z,24.26
2022-09-06T01:07:10.435Z,24.26
2022-09-06T01:09:47.674Z,24.34
2022-09-06T01:13:05.208Z,24.34
2022-09-06T01:15:55.276Z,24.20
2022-09-06T01:19:13.583Z,24.28
2022-09-06T01:21:54.624Z,24.25
2022-09-06T01:24:50.214Z,24.23
2022-09-06T01:27:41.349Z,24.20
2022-09-06T01:30:14.599Z,24.15
2022-09-06T01:32:54.017Z,24.14
2022-09-06T01:35:57.612Z,24.14
2022-09-06T01:38:26.196Z,24.12
2022-09-06T01:40:54.569Z,24.07
2022-09-06T01:43:36.894Z,24.09
2022-09-06T01:46:45.891Z,24.07
2022-09-06T01:49:29.010Z,24.06
2022-09-06T01:52:14.171Z,24.04
2022-09-06T01:55:09.576Z,24.04
2022-09-06T01:57:37.725Z,24.02
2022-09-06T02:00:15.691Z,24.00
2022-09-06T02:03:18.640Z,23.99
2022-09-06T02:05:56.065Z,23.99
2022-09-06T02:08:34.518Z,23.98
2022-09-06T02:11:08.483Z,23.96
2022-09-06T02:13:47.520Z,23.94
2022-09-06T02:16:23.475Z,23.95
2022-09-06T02:19:12.714Z,23.95
2022-09-06T02:21:46.026Z,23.92
2022-09-06T02:24:23.496Z,23.92
2022-09-06T02:26:51.923Z,23.90
2022-09-06T02:29:20.178Z,23.92
2022-09-06T02:32:02.779Z,23.88
2022-09-06T02:34:56.561Z,23.86
2022-09-06T02:37:26.176Z,23.86
2022-09-06T02:39:56.131Z,23.85
2022-09-06T02:42:25.194Z,23.85
2022-09-06T02:44:53.150Z,23.84
2022-09-06T02:47:22.197Z,23.83
2022-09-06T02:49:50.716Z,23.81
2022-09-06T02:52:19.034Z,23.82
2022-09-06T02:54:47.344Z,23.78
2022-09-06T02:57:15.572Z,23.77
2022-09-06T02:59:43.887Z,23.73
2022-09-06T03:02:12.312Z,23.73
2022-09-06T03:04:40.216Z,23.69
2022-09-06T03:07:08.581Z,23.62
2022-09-06T03:09:36.812Z,23.65
2022-09-06T03:12:05.240Z,23.65
2022-09-06T03:14:36.126Z,23.64
2022-09-06T03:17:04.933Z,23.62
2022-09-06T03:19:33.211Z,23.60
2022-09-06T03:22:01.530Z,23.58
2022-09-06T03:24:29.743Z,23.56
2022-09-06T03:26:58.236Z,23.54
2022-09-06T03:29:26.584Z,23.47
2022-09-06T03:31:54.853Z,23.43
2022-09-06T03:34:23.103Z,23.51
2022-09-06T03:36:51.497Z,23.42
2022-09-06T03:39:19.754Z,23.50
2022-09-06T03:41:47.997Z,23.51
2022-09-06T03:44:16.406Z,23.36
2022-09-06T03:46:44.622Z,23.48
2022-09-06T03:49:13.057Z,23.46
2022-09-06T03:51:41.610Z,23.58
2022-09-06T03:54:09.869Z,23.53
2022-09-06T03:56:38.244Z,23.61
2022-09-06T03:59:07.134Z,23.66
2022-09-06T04:01:36.210Z,23.73
2022-09-06T04:04:04.623Z,23.75
2022-09-06T04:06:32.832Z,23.75
2022-09-06T04:09:01.093Z,23.69
2022-09-06T04:11:29.385Z,23.73
2022-09-06T04:13:57.645Z,23.69
2022-09-06T04:16:25.995Z,23.73
2022-09-06T04:18:54.320Z,23.71
2022-09-06T04:21:23.330Z,23.69
2022-09-06T04:23:51.704Z,23.67
2022-09-06T04:26:20.063Z,23.63
2022-09-06T04:28:48.408Z,23.56
2022-09-06T04:31:16.652Z,23.60
2022-09-06T04:33:44.500Z,23.52
2022-09-06T04:36:12.952Z,23.52
2022-09-06T04:38:44.747Z,23.56
2022-09-06T04:41:17.051Z,23.60
2022-09-06T04:43:45.663Z,23.58
2022-09-06T04:46:24.938Z,23.63
2022-09-06T04:48:55.120Z,23.66
2022-09-06T04:51:24.653Z,23.66
2022-09-06T04:53:53.284Z,23.65
2022-09-06T04:56:26.169Z,23.63
2022-09-06T04:58:55.708Z,23.63
2022-09-06T05:01:26.186Z,23.61
2022-09-06T05:03:56.976Z,23.60
2022-09-06T05:06:27.076Z,23.62
2022-09-06T05:08:55.545Z,23.54
2022-09-06T05:11:23.481Z,23.56
2022-09-06T05:13:51.868Z,23.53
2022-09-06T05:16:19.833Z,23.53
2022-09-06T05:18:48.300Z,23.50
2022-09-06T05:21:16.612Z,23.49
2022-09-06T05:23:45.356Z,23.48
2022-09-06T05:26:13.349Z,23.46
2022-09-06T05:28:41.304Z,23.43
2022-09-06T05:31:13.246Z,23.41
2022-09-06T05:33:41.281Z,23.41
2022-09-06T05:36:09.992Z,23.39
2022-09-06T05:38:37.961Z,23.33
2022-09-06T05:41:06.452Z,23.33
2022-09-06T05:43:34.298Z,23.25
2022-09-06T05:46:02.373Z,23.19
2022-09-06T05:48:36.039Z,23.39
2022-09-06T05:51:12.661Z,23.28
2022-09-06T05:53:44.497Z,23.35
2022-09-06T05:56:14.517Z,23.33
2022-09-06T05:58:43.005Z,23.39
2022-09-06T06:01:23.054Z,23.37
2022-09-06T06:03:58.906Z,23.31
2022-09-06T06:06:33.516Z,23.34
2022-09-06T06:09:01.900Z,23.32
2022-09-06T06:11:31.309Z,23.30
2022-09-06T06:13:59.412Z,23.33
2022-09-06T06:16:27.523Z,23.35
2022-09-06T06:18:56.016Z,23.35
2022-09-06T06:21:30.596Z,23.34
2022-09-06T06:24:03.000Z,23.36
2022-09-06T06:26:35.528Z,23.37
2022-09-06T06:29:07.915Z,23.39
2022-09-06T06:31:38.511Z,23.42
2022-09-06T06:34:08.002Z,23.45
2022-09-06T06:36:37.084Z,23.44
2022-09-06T06:39:08.571Z,23.49
2022-09-06T06:41:37.486Z,23.52
2022-09-06T06:44:23.255Z,23.55
2022-09-06T06:46:52.032Z,23.58
2022-09-06T06:49:20.052Z,23.60
2022-09-06T06:51:48.175Z,23.61
2022-09-06T06:54:16.119Z,23.61
2022-09-06T06:56:45.600Z,23.64
2022-09-06T06:59:14.417Z,23.61
2022-09-06T07:01:42.509Z,23.46
2022-09-06T07:04:12.184Z,23.55
2022-09-06T07:12:33.323Z,23.64
2022-09-06T07:15:01.196Z,23.62
2022-09-06T07:17:29.646Z,23.50
2022-09-06T07:20:13.169Z,23.57
2022-09-06T07:22:42.683Z,23.75
2022-09-06T07:25:14.448Z,23.72
2022-09-06T07:30:19.939Z,23.84
2022-09-06T07:32:48.682Z,23.91
2022-09-06T07:35:16.714Z,23.94
2022-09-06T07:38:01.649Z,23.95
2022-09-06T07:40:31.264Z,23.96
2022-09-06T07:43:00.106Z,24.02
2022-09-06T07:45:28.196Z,24.07
2022-09-06T07:48:00.703Z,24.13
2022-09-06T07:50:47.433Z,24.21
2022-09-06T07:53:25.992Z,24.32
2022-09-06T07:56:00.859Z,24.39
2022-09-06T07:58:30.810Z,24.49
2022-09-06T08:01:39.055Z,24.58
2022-09-06T08:04:13.976Z,24.60
2022-09-06T08:09:37.229Z,24.63
2022-09-06T08:12:09.245Z,24.70
2022-09-06T08:14:37.681Z,24.77
2022-09-06T08:17:05.619Z,24.79
2022-09-06T08:19:34.517Z,24.80
2022-09-06T08:22:02.700Z,24.76
2022-09-06T08:24:31.164Z,24.70
2022-09-06T08:26:59.140Z,24.75
2022-09-06T08:29:27.543Z,24.72
2022-09-06T08:31:55.897Z,24.68
2022-09-06T08:34:24.211Z,24.65
2022-09-06T08:36:52.320Z,24.63
2022-09-06T08:39:20.358Z,24.62
2022-09-06T08:41:55.888Z,24.62
2022-09-06T08:47:26.251Z,24.57
2022-09-06T08:50:06.050Z,24.62
2022-09-06T08:53:23.024Z,24.62
2022-09-06T08:56:18.523Z,24.62
2022-09-06T08:59:08.171Z,24.65
2022-09-06T09:02:07.132Z,24.68
2022-09-06T09:04:43.601Z,24.69
2022-09-06T09:07:38.721Z,24.71
2022-09-06T09:10:17.445Z,24.75
2022-09-06T09:12:49.032Z,24.77
2022-09-06T09:15:20.741Z,24.80
2022-09-06T09:17:51.089Z,24.82
2022-09-06T09:20:19.209Z,24.88
2022-09-06T09:22:47.854Z,24.88
2022-09-06T09:25:23.694Z,24.96
2022-09-06T09:27:57.792Z,25.02
2022-09-06T09:30:49.981Z,25.05
2022-09-06T09:33:30.307Z,25.13
2022-09-06T09:36:13.142Z,25.21
2022-09-06T09:38:46.854Z,25.26
2022-09-06T09:41:32.937Z,25.29
2022-09-06T09:44:06.300Z,25.46
2022-09-06T09:46:39.786Z,25.54
2022-09-06T09:49:11.837Z,25.62
2022-09-06T09:52:06.953Z,25.76
2022-09-06T09:54:39.466Z,25.87
2022-09-06T09:57:17.874Z,25.89
2022-09-06T10:00:13.862Z,26.06
2022-09-06T10:02:43.456Z,26.20
2022-09-06T10:05:16.867Z,26.45
2022-09-06T10:07:52.993Z,26.86
2022-09-06T10:10:24.122Z,27.25
2022-09-06T10:13:31.811Z,27.29
2022-09-06T10:16:03.222Z,27.24
2022-09-06T10:18:43.685Z,27.31
2022-09-06T10:21:16.091Z,27.39
2022-09-06T10:24:30.580Z,27.30
2022-09-06T10:27:03.650Z,27.50
2022-09-06T10:29:41.328Z,27.69
2022-09-06T10:32:30.961Z,27.63
2022-09-06T10:35:21.100Z,27.87
2022-09-06T10:38:32.300Z,27.93
2022-09-06T10:41:11.349Z,28.05
2022-09-06T10:44:31.603Z,28.40
2022-09-06T10:47:12.257Z,29.06
2022-09-06T10:49:55.457Z,29.27
2022-09-06T10:52:41.075Z,29.44
2022-09-06T10:55:15.977Z,30.06
2022-09-06T11:00:47.560Z,32.26
2022-09-06T11:06:32.389Z,33.76
2022-09-06T11:09:55.507Z,34.33
2022-09-06T11:12:46.246Z,35.03
2022-09-06T11:15:17.704Z,35.55
2022-09-06T11:18:05.654Z,35.93
2022-09-06T11:20:45.873Z,36.43
2022-09-06T11:23:48.247Z,36.78
2022-09-06T11:26:40.044Z,37.35
2022-09-06T11:29:23.100Z,37.76
2022-09-06T11:34:56.511Z,38.47
2022-09-06T11:37:39.660Z,38.89
2022-09-06T11:43:01.480Z,39.68
2022-09-06T11:45:52.626Z,40.09
2022-09-06T11:48:27.124Z,40.21
2022-09-06T11:50:58.381Z,40.59
2022-09-06T11:53:59.909Z,40.82
2022-09-06T11:56:48.177Z,40.88
2022-09-06T11:59:19.773Z,41.23
2022-09-06T12:02:37.845Z,41.57
2022-09-06T12:05:07.440Z,41.11
2022-09-06T12:07:37.876Z,41.67
2022-09-06T12:10:41.880Z,42.12
2022-09-06T12:13:44.920Z,42.44
2022-09-06T12:16:15.561Z,42.03
2022-09-06T12:18:46.668Z,42.48
2022-09-06T12:21:35.315Z,42.84
2022-09-06T12:24:06.396Z,42.44
2022-09-06T12:27:16.016Z,42.64
2022-09-06T12:30:04.309Z,42.60
2022-09-06T12:32:56.138Z,42.86
2022-09-06T12:38:25.471Z,42.84
2022-09-06T12:40:58.916Z,43.12
2022-09-06T12:43:27.053Z,42.82
2022-09-06T12:45:55.428Z,43.71
2022-09-06T12:48:33.371Z,43.93
2022-09-06T12:51:09.198Z,43.94
2022-09-06T12:53:38.276Z,44.20
2022-09-06T12:56:12.492Z,44.16
2022-09-06T12:58:40.923Z,44.30
2022-09-06T13:01:33.706Z,44.37
2022-09-06T13:04:09.952Z,44.70
2022-09-06T13:06:45.729Z,44.90
2022-09-06T13:09:19.099Z,45.04
2022-09-06T13:11:52.096Z,45.25
2022-09-06T13:14:31.225Z,45.21
2022-09-06T13:16:59.897Z,45.71
2022-09-06T13:19:37.190Z,45.16
2022-09-06T13:22:10.816Z,45.27
2022-09-06T13:24:57.236Z,45.14
2022-09-06T13:27:31.228Z,-149.27
2022-09-06T13:30:09.125Z,-149.27
2022-09-06T13:32:46.852Z,-149.27
2022-09-06T13:35:29.518Z,-149.27
2022-09-06T13:38:39.733Z,-149.27
2022-09-06T13:41:37.063Z,-149.27
2022-09-06T13:44:19.862Z,-149.27
2022-09-06T13:46:53.797Z,-149.27
2022-09-06T13:49:23.785Z,-149.27
2022-09-06T13:51:54.515Z,-149.27
2022-09-06T13:54:22.920Z,-149.27
2022-09-06T13:56:52.077Z,-149.27
2022-09-06T13:59:20.334Z,-149.27
2022-09-06T14:02:03.143Z,-149.27
2022-09-06T14:04:32.524Z,-149.27
2022-09-06T14:07:00.839Z,-149.27
2022-09-06T14:09:29.973Z,-149.27
2022-09-06T14:11:57.850Z,-149.27
2022-09-06T14:14:25.837Z,-149.27
2022-09-06T14:16:54.089Z,-149.27
2022-09-06T14:19:22.421Z,-149.27
2022-09-06T14:21:50.713Z,-149.27
2022-09-06T14:24:19.034Z,-149.27
2022-09-06T14:26:47.074Z,-149.27
2022-09-06T14:29:15.049Z,44.56
2022-09-06T14:31:42.966Z,44.89
2022-09-06T14:34:13.040Z,44.73
2022-09-06T14:36:41.135Z,44.29
2022-09-06T14:39:09.180Z,44.00
2022-09-06T14:41:37.201Z,44.53
2022-09-06T14:44:05.508Z,44.75
2022-09-06T14:46:33.911Z,44.72
2022-09-06T14:49:09.990Z,44.13
2022-09-06T14:51:39.681Z,43.38
2022-09-06T14:54:14.494Z,43.56
2022-09-06T14:56:44.078Z,43.89
2022-09-06T14:59:12.669Z,44.09
2022-09-06T15:02:05.553Z,44.20
2022-09-06T15:04:33.635Z,44.12
2022-09-06T15:07:01.975Z,44.32
2022-09-06T15:09:30.259Z,43.69
2022-09-06T15:11:58.444Z,44.07
2022-09-06T15:14:31.424Z,44.37
2022-09-06T15:17:00.018Z,44.62
2022-09-06T15:19:30.082Z,44.35
2022-09-06T15:22:00.137Z,44.62
2022-09-06T15:24:28.801Z,44.48
2022-09-06T15:26:57.121Z,44.21
2022-09-06T15:29:27.014Z,44.55
2022-09-06T15:31:56.093Z,44.19
2022-09-06T15:34:26.620Z,43.77
2022-09-06T15:36:56.508Z,43.77
2022-09-06T15:39:29.287Z,43.35
2022-09-06T15:41:57.995Z,43.67
2022-09-06T15:44:26.400Z,43.12
2022-09-06T15:46:58.110Z,43.06
2022-09-06T15:49:32.014Z,43.34
2022-09-06T15:52:03.215Z,43.40
2022-09-06T15:54:50.511Z,43.49
2022-09-06T15:57:18.907Z,43.58
2022-09-06T15:59:47.244Z,43.24
2022-09-06T16:02:15.345Z,43.11
2022-09-06T16:04:43.462Z,43.02
2022-09-06T16:07:11.837Z,42.85
2022-09-06T16:09:40.238Z,42.83
2022-09-06T16:12:09.086Z,42.76
2022-09-06T16:14:38.164Z,42.60
2022-09-06T16:17:06.603Z,42.43
2022-09-06T16:19:34.870Z,42.03
2022-09-06T16:22:04.259Z,41.75
2022-09-06T16:24:32.088Z,41.97
2022-09-06T16:27:00.562Z,41.71
2022-09-06T16:29:28.439Z,41.32
2022-09-06T16:31:59.780Z,40.81
2022-09-06T16:34:28.536Z,40.19
2022-09-06T16:36:56.983Z,39.41
2022-09-06T16:39:25.128Z,38.74
2022-09-06T16:41:53.490Z,38.49
2022-09-06T16:44:21.776Z,37.83
2022-09-06T16:46:50.751Z,37.51
2022-09-06T16:49:19.269Z,37.02
2022-09-06T16:51:50.075Z,36.87
2022-09-06T16:54:19.021Z,36.60
2022-09-06T16:56:47.787Z,36.63
2022-09-06T16:59:17.104Z,36.65
2022-09-06T17:01:45.838Z,36.32
2022-09-06T17:04:14.599Z,36.02
2022-09-06T17:06:44.554Z,35.90
2022-09-06T17:09:17.631Z,35.66
2022-09-06T17:11:49.674Z,35.22
2022-09-06T17:14:18.975Z,35.08
2022-09-06T17:17:05.427Z,34.86
2022-09-06T17:19:43.055Z,34.43
2022-09-06T17:22:13.077Z,34.40
2022-09-06T17:24:41.566Z,34.24
2022-09-06T17:27:10.012Z,33.95
2022-09-06T17:29:39.923Z,33.75
2022-09-06T17:32:10.180Z,33.42
2022-09-06T17:34:40.001Z,33.10
2022-09-06T17:37:08.674Z,32.85
2022-09-06T17:39:37.354Z,32.44
2022-09-06T17:42:06.047Z,32.48
2022-09-06T17:44:34.673Z,32.18
2022-09-06T17:47:13.335Z,32.11
2022-09-06T17:49:43.084Z,31.85
2022-09-06T17:52:11.911Z,31.68
2022-09-06T17:54:40.159Z,31.60
2022-09-06T17:57:08.447Z,31.49
2022-09-06T17:59:36.774Z,31.30
2022-09-06T18:02:05.512Z,31.03
2022-09-06T18:04:33.992Z,30.88
2022-09-06T18:07:02.368Z,30.49
2022-09-06T18:09:30.710Z,30.42
2022-09-06T18:11:59.108Z,30.29
2022-09-06T18:14:28.492Z,30.32
2022-09-06T18:16:56.976Z,30.07
2022-09-06T18:19:26.073Z,30.02
2022-09-06T18:21:56.989Z,29.89
2022-09-06T18:24:25.236Z,29.75
2022-09-06T18:26:53.516Z,29.53
2022-09-06T18:29:22.071Z,29.46
2022-09-06T18:31:53.454Z,29.30
2022-09-06T18:34:22.005Z,29.14
2022-09-06T18:36:50.408Z,29.09
2022-09-06T18:39:20.236Z,28.79
2022-09-06T18:42:14.486Z,28.82
2022-09-06T18:44:43.903Z,28.81
2022-09-06T18:47:12.544Z,28.59
2022-09-06T18:49:44.121Z,28.65
2022-09-06T18:52:12.823Z,28.41
2022-09-06T18:54:41.178Z,28.33
2022-09-06T18:57:09.482Z,28.31
2022-09-06T18:59:37.967Z,28.28
2022-09-06T19:02:06.407Z,28.23
2022-09-06T19:04:34.471Z,28.19
2022-09-06T19:07:03.767Z,28.14
2022-09-06T19:09:32.991Z,28.06
2022-09-06T19:12:01.799Z,28.03
2022-09-06T19:14:30.125Z,27.95
2022-09-06T19:16:58.455Z,27.88
2022-09-06T19:19:26.738Z,27.80
2022-09-06T19:21:55.001Z,27.64
2022-09-06T19:24:24.487Z,27.59
2022-09-06T19:26:53.273Z,27.55
2022-09-06T19:29:21.738Z,27.35
2022-09-06T19:31:49.771Z,27.34
2022-09-06T19:34:18.424Z,27.31
2022-09-06T19:36:49.954Z,27.19
2022-09-06T19:39:18.013Z,27.13
2022-09-06T19:41:47.309Z,27.07
2022-09-06T19:44:17.068Z,26.96
2022-09-06T19:46:46.767Z,26.77
2022-09-06T19:49:23.269Z,26.83
2022-09-06T19:51:52.839Z,26.72
2022-09-06T19:54:21.220Z,26.68
2022-09-06T19:56:49.163Z,26.56
2022-09-06T19:59:17.830Z,26.51
2022-09-06T20:01:47.541Z,26.51
2022-09-06T20:04:16.146Z,26.48
2022-09-06T20:06:44.208Z,26.44
2022-09-06T20:09:13.367Z,26.38
2022-09-06T20:11:42.697Z,26.33
2022-09-06T20:14:12.474Z,26.26
2022-09-06T20:16:42.376Z,26.20
2022-09-06T20:19:14.122Z,26.14
2022-09-06T20:21:42.982Z,26.08
2022-09-06T20:24:11.214Z,26.03
2022-09-06T20:26:40.282Z,25.95
2022-09-06T20:29:08.822Z,25.89
2022-09-06T20:31:37.989Z,25.77
2022-09-06T20:34:07.310Z,25.75
2022-09-06T20:36:35.848Z,25.68
2022-09-06T20:39:04.392Z,25.64
2022-09-06T20:41:33.669Z,25.55
2022-09-06T20:44:01.984Z,25.51
2022-09-06T20:46:35.478Z,25.40
2022-09-06T20:49:05.051Z,25.38
2022-09-06T20:51:35.683Z,25.26
2022-09-06T20:54:05.653Z,25.24
2022-09-06T20:56:38.680Z,25.21
2022-09-06T20:59:10.905Z,25.17
2022-09-06T21:01:45.816Z,25.12
2022-09-06T21:04:16.441Z,25.06
2022-09-06T21:06:46.530Z,25.01
2022-09-06T21:09:15.040Z,24.98
2022-09-06T21:11:43.751Z,24.91
2022-09-06T21:14:12.755Z,24.85
2022-09-06T21:16:41.153Z,24.81
2022-09-06T21:19:11.225Z,24.77
2022-09-06T21:21:40.100Z,24.70
2022-09-06T21:24:10.479Z,24.63
2022-09-06T21:26:39.049Z,24.52
2022-09-06T21:29:07.485Z,24.50
2022-09-06T21:31:37.349Z,24.46
2022-09-06T21:34:15.692Z,24.42
2022-09-06T21:36:45.182Z,24.38
2022-09-06T21:39:13.893Z,24.33
2022-09-06T21:41:43.397Z,24.29
2022-09-06T21:44:12.287Z,24.24
2022-09-06T21:46:41.087Z,24.18
2022-09-06T21:49:13.496Z,24.13
2022-09-06T21:51:42.569Z,24.11
2022-09-06T22:07:42.403Z,23.86
2022-09-06T22:10:10.235Z,23.80
2022-09-06T22:12:38.558Z,23.79
2022-09-06T22:17:50.180Z,23.74
2022-09-06T22:20:18.608Z,23.71
2022-09-06T22:22:46.520Z,23.70
2022-09-06T22:25:15.232Z,23.70
2022-09-06T22:27:43.171Z,23.68
2022-09-06T22:30:12.360Z,23.64
2022-09-06T22:32:40.656Z,23.64
2022-09-06T22:35:09.836Z,23.60
2022-09-06T22:37:38.061Z,23.61
2022-09-06T22:40:06.989Z,23.61
2022-09-06T22:42:34.965Z,23.59
2022-09-06T22:45:04.116Z,23.52
2022-09-06T22:52:57.104Z,23.50
2022-09-06T22:55:25.120Z,23.46
2022-09-06T22:57:53.481Z,23.43
2022-09-06T23:00:21.740Z,23.42
2022-09-06T23:02:50.051Z,23.37
2022-09-06T23:05:18.291Z,23.38
2022-09-06T23:07:46.515Z,23.33
2022-09-06T23:10:14.344Z,23.33
2022-09-06T23:12:42.339Z,23.33
2022-09-06T23:15:10.651Z,23.24
2022-09-06T23:17:39.007Z,23.26
2022-09-06T23:20:07.622Z,23.16
2022-09-06T23:22:35.963Z,23.14
2022-09-06T23:25:04.498Z,23.14
2022-09-06T23:27:32.426Z,23.17
2022-09-06T23:30:02.757Z,23.19
2022-09-06T23:32:33.215Z,23.13
2022-09-06T23:35:01.540Z,23.18
2022-09-06T23:37:29.379Z,23.15
2022-09-06T23:39:57.779Z,23.12
2022-09-06T23:42:25.692Z,23.05
2022-09-06T23:44:57.456Z,23.04
2022-09-06T23:47:25.537Z,23.10
2022-09-06T23:49:53.703Z,23.10
2022-09-06T23:52:21.723Z,23.09
2022-09-06T23:54:50.046Z,23.08
2022-09-06T23:57:18.343Z,23.09
2022-09-06T23:59:46.638Z,23.07
